sensor_id;sensor_type;location;lat;lon;timestamp;P1;durP1;ratioP1;P2;durP2;ratioP2
75377;SDS011;63959;51.960;5.886;2023-06-10T00:01:26;8.73;;;5.47;;
75377;SDS011;63959;51.960;5.886;2023-06-10T00:03:55;9.05;;;5.78;;
75377;SDS011;63959;51.960;5.886;2023-06-10T00:06:24;10.00;;;5.80;;
75377;SDS011;63959;51.960;5.886;2023-06-10T00:08:54;8.70;;;6.28;;
75377;SDS011;63959;51.960;5.886;2023-06-10T00:11:23;10.40;;;6.80;;
75377;SDS011;63959;51.960;5.886;2023-06-10T00:13:54;6.93;;;5.35;;
75377;SDS011;63959;51.960;5.886;2023-06-10T00:16:23;10.65;;;6.00;;
75377;SDS011;63959;51.960;5.886;2023-06-10T00:18:51;10.75;;;5.68;;
75377;SDS011;63959;51.960;5.886;2023-06-10T00:21:21;8.93;;;6.10;;
75377;SDS011;63959;51.960;5.886;2023-06-10T00:23:50;7.65;;;5.30;;
75377;SDS011;63959;51.960;5.886;2023-06-10T00:26:18;11.73;;;5.80;;
75377;SDS011;63959;51.960;5.886;2023-06-10T00:28:47;9.00;;;5.68;;
75377;SDS011;63959;51.960;5.886;2023-06-10T00:31:18;8.43;;;5.68;;
75377;SDS011;63959;51.960;5.886;2023-06-10T00:33:47;10.95;;;5.78;;
75377;SDS011;63959;51.960;5.886;2023-06-10T00:36:16;7.72;;;5.30;;
75377;SDS011;63959;51.960;5.886;2023-06-10T00:38:44;8.98;;;5.53;;
75377;SDS011;63959;51.960;5.886;2023-06-10T00:41:13;8.98;;;5.80;;
75377;SDS011;63959;51.960;5.886;2023-06-10T00:43:41;9.40;;;5.93;;
75377;SDS011;63959;51.960;5.886;2023-06-10T00:46:10;9.40;;;5.63;;
75377;SDS011;63959;51.960;5.886;2023-06-10T00:48:43;9.68;;;5.60;;
75377;SDS011;63959;51.960;5.886;2023-06-10T00:51:12;7.13;;;5.10;;
75377;SDS011;63959;51.960;5.886;2023-06-10T00:53:41;9.43;;;6.68;;
75377;SDS011;63959;51.960;5.886;2023-06-10T00:56:10;9.15;;;5.78;;
75377;SDS011;63959;51.960;5.886;2023-06-10T00:58:39;9.00;;;5.47;;
75377;SDS011;63959;51.960;5.886;2023-06-10T01:01:08;9.00;;;5.45;;
75377;SDS011;63959;51.960;5.886;2023-06-10T01:03:38;8.43;;;5.07;;
75377;SDS011;63959;51.960;5.886;2023-06-10T01:06:12;7.38;;;5.00;;
75377;SDS011;63959;51.960;5.886;2023-06-10T01:08:45;8.18;;;4.78;;
75377;SDS011;63959;51.960;5.886;2023-06-10T01:11:17;9.23;;;5.53;;
75377;SDS011;63959;51.960;5.886;2023-06-10T01:13:48;7.68;;;4.93;;
75377;SDS011;63959;51.960;5.886;2023-06-10T01:16:17;7.95;;;4.63;;
75377;SDS011;63959;51.960;5.886;2023-06-10T01:18:47;9.50;;;5.10;;
75377;SDS011;63959;51.960;5.886;2023-06-10T01:21:19;10.43;;;6.03;;
75377;SDS011;63959;51.960;5.886;2023-06-10T01:23:51;8.02;;;4.85;;
75377;SDS011;63959;51.960;5.886;2023-06-10T01:26:22;7.93;;;4.47;;
75377;SDS011;63959;51.960;5.886;2023-06-10T01:28:53;9.27;;;4.68;;
75377;SDS011;63959;51.960;5.886;2023-06-10T01:31:25;6.90;;;4.05;;
75377;SDS011;63959;51.960;5.886;2023-06-10T01:33:59;8.15;;;4.53;;
75377;SDS011;63959;51.960;5.886;2023-06-10T01:36:31;7.82;;;4.15;;
75377;SDS011;63959;51.960;5.886;2023-06-10T01:39:00;7.05;;;4.22;;
75377;SDS011;63959;51.960;5.886;2023-06-10T01:41:30;7.85;;;4.40;;
75377;SDS011;63959;51.960;5.886;2023-06-10T01:43:59;7.43;;;4.07;;
75377;SDS011;63959;51.960;5.886;2023-06-10T01:46:28;10.57;;;5.38;;
75377;SDS011;63959;51.960;5.886;2023-06-10T01:48:59;6.60;;;3.50;;
75377;SDS011;63959;51.960;5.886;2023-06-10T01:51:28;10.30;;;4.80;;
75377;SDS011;63959;51.960;5.886;2023-06-10T01:53:59;6.93;;;4.32;;
75377;SDS011;63959;51.960;5.886;2023-06-10T01:56:28;8.27;;;4.88;;
75377;SDS011;63959;51.960;5.886;2023-06-10T01:58:57;10.48;;;5.20;;
75377;SDS011;63959;51.960;5.886;2023-06-10T02:01:26;6.93;;;4.13;;
75377;SDS011;63959;51.960;5.886;2023-06-10T02:03:55;10.80;;;4.95;;
75377;SDS011;63959;51.960;5.886;2023-06-10T02:06:23;8.80;;;4.85;;
75377;SDS011;63959;51.960;5.886;2023-06-10T02:08:52;8.50;;;3.78;;
75377;SDS011;63959;51.960;5.886;2023-06-10T02:11:24;9.52;;;4.57;;
75377;SDS011;63959;51.960;5.886;2023-06-10T02:13:52;8.90;;;4.95;;
75377;SDS011;63959;51.960;5.886;2023-06-10T02:16:21;9.60;;;4.78;;
75377;SDS011;63959;51.960;5.886;2023-06-10T02:18:49;8.77;;;4.60;;
75377;SDS011;63959;51.960;5.886;2023-06-10T02:21:18;9.20;;;5.35;;
75377;SDS011;63959;51.960;5.886;2023-06-10T02:23:47;9.30;;;4.68;;
75377;SDS011;63959;51.960;5.886;2023-06-10T02:26:15;8.95;;;4.43;;
75377;SDS011;63959;51.960;5.886;2023-06-10T02:28:47;8.65;;;4.88;;
75377;SDS011;63959;51.960;5.886;2023-06-10T02:31:16;8.50;;;4.65;;
75377;SDS011;63959;51.960;5.886;2023-06-10T02:33:46;9.40;;;5.05;;
75377;SDS011;63959;51.960;5.886;2023-06-10T02:36:15;6.50;;;3.97;;
75377;SDS011;63959;51.960;5.886;2023-06-10T02:38:44;8.60;;;4.35;;
75377;SDS011;63959;51.960;5.886;2023-06-10T02:41:13;8.10;;;4.35;;
75377;SDS011;63959;51.960;5.886;2023-06-10T02:43:42;9.45;;;4.45;;
75377;SDS011;63959;51.960;5.886;2023-06-10T02:46:14;8.18;;;4.85;;
75377;SDS011;63959;51.960;5.886;2023-06-10T02:48:43;7.47;;;4.10;;
75377;SDS011;63959;51.960;5.886;2023-06-10T02:51:18;13.02;;;5.35;;
75377;SDS011;63959;51.960;5.886;2023-06-10T02:53:49;7.18;;;3.90;;
75377;SDS011;63959;51.960;5.886;2023-06-10T02:56:18;8.02;;;4.78;;
75377;SDS011;63959;51.960;5.886;2023-06-10T02:58:47;7.97;;;3.67;;
75377;SDS011;63959;51.960;5.886;2023-06-10T03:01:20;9.13;;;4.53;;
75377;SDS011;63959;51.960;5.886;2023-06-10T03:03:56;7.70;;;4.47;;
75377;SDS011;63959;51.960;5.886;2023-06-10T03:06:25;10.27;;;4.95;;
75377;SDS011;63959;51.960;5.886;2023-06-10T03:09:04;8.43;;;5.05;;
75377;SDS011;63959;51.960;5.886;2023-06-10T03:11:33;9.10;;;4.65;;
75377;SDS011;63959;51.960;5.886;2023-06-10T03:14:02;8.32;;;4.90;;
75377;SDS011;63959;51.960;5.886;2023-06-10T03:16:34;7.55;;;4.25;;
75377;SDS011;63959;51.960;5.886;2023-06-10T03:19:06;8.13;;;4.43;;
75377;SDS011;63959;51.960;5.886;2023-06-10T03:21:37;8.73;;;4.90;;
75377;SDS011;63959;51.960;5.886;2023-06-10T03:24:07;9.57;;;5.03;;
75377;SDS011;63959;51.960;5.886;2023-06-10T03:26:38;8.55;;;4.53;;
75377;SDS011;63959;51.960;5.886;2023-06-10T03:29:07;8.15;;;4.07;;
75377;SDS011;63959;51.960;5.886;2023-06-10T03:31:38;8.50;;;4.55;;
75377;SDS011;63959;51.960;5.886;2023-06-10T03:34:07;8.05;;;4.70;;
75377;SDS011;63959;51.960;5.886;2023-06-10T03:36:36;10.43;;;5.18;;
75377;SDS011;63959;51.960;5.886;2023-06-10T03:39:08;9.20;;;5.18;;
75377;SDS011;63959;51.960;5.886;2023-06-10T03:41:37;8.80;;;4.68;;
75377;SDS011;63959;51.960;5.886;2023-06-10T03:44:06;9.20;;;4.78;;
75377;SDS011;63959;51.960;5.886;2023-06-10T03:46:35;8.23;;;4.70;;
75377;SDS011;63959;51.960;5.886;2023-06-10T03:49:08;8.82;;;5.50;;
75377;SDS011;63959;51.960;5.886;2023-06-10T03:51:38;9.70;;;5.28;;
75377;SDS011;63959;51.960;5.886;2023-06-10T03:54:06;13.13;;;4.75;;
75377;SDS011;63959;51.960;5.886;2023-06-10T03:56:36;9.07;;;4.18;;
75377;SDS011;63959;51.960;5.886;2023-06-10T03:59:04;9.57;;;5.05;;
75377;SDS011;63959;51.960;5.886;2023-06-10T04:01:34;13.57;;;5.28;;
75377;SDS011;63959;51.960;5.886;2023-06-10T04:04:03;7.53;;;4.13;;
75377;SDS011;63959;51.960;5.886;2023-06-10T04:06:36;12.27;;;4.60;;
75377;SDS011;63959;51.960;5.886;2023-06-10T04:09:05;8.73;;;4.45;;
75377;SDS011;63959;51.960;5.886;2023-06-10T04:11:38;9.40;;;5.10;;
75377;SDS011;63959;51.960;5.886;2023-06-10T04:14:08;10.70;;;4.90;;
75377;SDS011;63959;51.960;5.886;2023-06-10T04:16:38;9.45;;;4.65;;
75377;SDS011;63959;51.960;5.886;2023-06-10T04:19:08;9.77;;;4.68;;
75377;SDS011;63959;51.960;5.886;2023-06-10T04:21:40;11.82;;;5.32;;
75377;SDS011;63959;51.960;5.886;2023-06-10T04:24:11;11.57;;;6.00;;
75377;SDS011;63959;51.960;5.886;2023-06-10T04:26:41;10.48;;;5.13;;
75377;SDS011;63959;51.960;5.886;2023-06-10T04:29:11;8.75;;;4.93;;
75377;SDS011;63959;51.960;5.886;2023-06-10T04:31:40;11.55;;;5.28;;
75377;SDS011;63959;51.960;5.886;2023-06-10T04:34:09;9.02;;;5.30;;
75377;SDS011;63959;51.960;5.886;2023-06-10T04:36:41;9.93;;;4.78;;
75377;SDS011;63959;51.960;5.886;2023-06-10T04:39:12;10.48;;;5.18;;
75377;SDS011;63959;51.960;5.886;2023-06-10T04:41:42;9.32;;;5.20;;
75377;SDS011;63959;51.960;5.886;2023-06-10T04:44:12;10.73;;;4.90;;
75377;SDS011;63959;51.960;5.886;2023-06-10T04:46:41;9.30;;;4.85;;
75377;SDS011;63959;51.960;5.886;2023-06-10T04:49:10;11.65;;;5.22;;
75377;SDS011;63959;51.960;5.886;2023-06-10T04:51:43;8.70;;;5.00;;
75377;SDS011;63959;51.960;5.886;2023-06-10T04:54:11;9.25;;;4.93;;
75377;SDS011;63959;51.960;5.886;2023-06-10T04:56:40;9.60;;;4.93;;
75377;SDS011;63959;51.960;5.886;2023-06-10T04:59:08;8.68;;;4.63;;
75377;SDS011;63959;51.960;5.886;2023-06-10T05:01:37;10.73;;;5.10;;
75377;SDS011;63959;51.960;5.886;2023-06-10T05:04:06;11.10;;;5.25;;
75377;SDS011;63959;51.960;5.886;2023-06-10T05:06:34;9.48;;;5.00;;
75377;SDS011;63959;51.960;5.886;2023-06-10T05:09:06;9.00;;;4.57;;
75377;SDS011;63959;51.960;5.886;2023-06-10T05:11:35;10.68;;;5.38;;
75377;SDS011;63959;51.960;5.886;2023-06-10T05:14:04;10.23;;;5.30;;
75377;SDS011;63959;51.960;5.886;2023-06-10T05:16:32;8.25;;;4.45;;
75377;SDS011;63959;51.960;5.886;2023-06-10T05:19:01;10.07;;;5.28;;
75377;SDS011;63959;51.960;5.886;2023-06-10T05:21:29;8.15;;;4.22;;
75377;SDS011;63959;51.960;5.886;2023-06-10T05:24:01;10.27;;;5.40;;
75377;SDS011;63959;51.960;5.886;2023-06-10T05:26:32;11.20;;;5.10;;
75377;SDS011;63959;51.960;5.886;2023-06-10T05:29:03;9.88;;;5.32;;
75377;SDS011;63959;51.960;5.886;2023-06-10T05:31:31;10.63;;;5.28;;
75377;SDS011;63959;51.960;5.886;2023-06-10T05:34:00;9.07;;;4.88;;
75377;SDS011;63959;51.960;5.886;2023-06-10T05:36:28;9.30;;;4.63;;
75377;SDS011;63959;51.960;5.886;2023-06-10T05:38:58;10.82;;;4.38;;
75377;SDS011;63959;51.960;5.886;2023-06-10T05:41:26;11.00;;;5.38;;
75377;SDS011;63959;51.960;5.886;2023-06-10T05:43:57;8.48;;;3.97;;
75377;SDS011;63959;51.960;5.886;2023-06-10T05:46:26;13.00;;;5.28;;
75377;SDS011;63959;51.960;5.886;2023-06-10T05:48:55;10.45;;;5.03;;
75377;SDS011;63959;51.960;5.886;2023-06-10T05:51:23;10.55;;;5.30;;
75377;SDS011;63959;51.960;5.886;2023-06-10T05:53:53;10.48;;;5.18;;
75377;SDS011;63959;51.960;5.886;2023-06-10T05:56:21;9.63;;;5.13;;
75377;SDS011;63959;51.960;5.886;2023-06-10T05:58:51;9.35;;;5.32;;
75377;SDS011;63959;51.960;5.886;2023-06-10T06:01:22;8.95;;;5.32;;
75377;SDS011;63959;51.960;5.886;2023-06-10T06:03:51;8.35;;;4.90;;
75377;SDS011;63959;51.960;5.886;2023-06-10T06:06:20;9.40;;;4.93;;
75377;SDS011;63959;51.960;5.886;2023-06-10T06:08:49;9.75;;;5.63;;
75377;SDS011;63959;51.960;5.886;2023-06-10T06:11:18;8.98;;;5.10;;
75377;SDS011;63959;51.960;5.886;2023-06-10T06:13:46;9.65;;;5.30;;
75377;SDS011;63959;51.960;5.886;2023-06-10T06:16:15;9.02;;;5.47;;
75377;SDS011;63959;51.960;5.886;2023-06-10T06:18:46;8.27;;;4.80;;
75377;SDS011;63959;51.960;5.886;2023-06-10T06:21:15;10.25;;;5.18;;
75377;SDS011;63959;51.960;5.886;2023-06-10T06:23:43;9.95;;;4.95;;
75377;SDS011;63959;51.960;5.886;2023-06-10T06:26:12;9.05;;;4.95;;
75377;SDS011;63959;51.960;5.886;2023-06-10T06:28:40;10.02;;;5.22;;
75377;SDS011;63959;51.960;5.886;2023-06-10T06:31:09;9.13;;;4.93;;
75377;SDS011;63959;51.960;5.886;2023-06-10T06:33:38;10.68;;;5.38;;
75377;SDS011;63959;51.960;5.886;2023-06-10T06:36:09;9.27;;;4.38;;
75377;SDS011;63959;51.960;5.886;2023-06-10T06:38:38;9.40;;;4.65;;
75377;SDS011;63959;51.960;5.886;2023-06-10T06:41:06;10.43;;;5.10;;
75377;SDS011;63959;51.960;5.886;2023-06-10T06:43:35;10.77;;;5.38;;
75377;SDS011;63959;51.960;5.886;2023-06-10T06:46:22;9.32;;;5.00;;
75377;SDS011;63959;51.960;5.886;2023-06-10T06:48:51;10.38;;;5.40;;
75377;SDS011;63959;51.960;5.886;2023-06-10T06:51:22;12.75;;;5.82;;
75377;SDS011;63959;51.960;5.886;2023-06-10T06:53:51;12.57;;;6.18;;
75377;SDS011;63959;51.960;5.886;2023-06-10T06:56:22;7.88;;;4.78;;
75377;SDS011;63959;51.960;5.886;2023-06-10T06:58:52;10.68;;;5.43;;
75377;SDS011;63959;51.960;5.886;2023-06-10T07:01:20;10.07;;;5.00;;
75377;SDS011;63959;51.960;5.886;2023-06-10T07:03:49;9.63;;;5.70;;
75377;SDS011;63959;51.960;5.886;2023-06-10T07:06:17;7.93;;;4.97;;
75377;SDS011;63959;51.960;5.886;2023-06-10T07:08:49;10.05;;;5.72;;
75377;SDS011;63959;51.960;5.886;2023-06-10T07:11:17;10.05;;;5.50;;
75377;SDS011;63959;51.960;5.886;2023-06-10T07:13:47;10.43;;;4.90;;
75377;SDS011;63959;51.960;5.886;2023-06-10T07:16:16;9.50;;;5.22;;
75377;SDS011;63959;51.960;5.886;2023-06-10T07:18:46;9.65;;;5.18;;
75377;SDS011;63959;51.960;5.886;2023-06-10T07:21:14;8.90;;;4.60;;
75377;SDS011;63959;51.960;5.886;2023-06-10T07:23:43;9.68;;;4.95;;
75377;SDS011;63959;51.960;5.886;2023-06-10T07:26:14;9.43;;;4.95;;
75377;SDS011;63959;51.960;5.886;2023-06-10T07:28:43;9.52;;;4.70;;
75377;SDS011;63959;51.960;5.886;2023-06-10T07:31:12;10.57;;;4.85;;
75377;SDS011;63959;51.960;5.886;2023-06-10T07:33:40;9.38;;;5.22;;
75377;SDS011;63959;51.960;5.886;2023-06-10T07:36:09;9.48;;;4.82;;
75377;SDS011;63959;51.960;5.886;2023-06-10T07:38:38;10.13;;;5.20;;
75377;SDS011;63959;51.960;5.886;2023-06-10T07:41:07;10.52;;;5.72;;
75377;SDS011;63959;51.960;5.886;2023-06-10T07:43:39;9.07;;;4.72;;
75377;SDS011;63959;51.960;5.886;2023-06-10T07:46:07;9.48;;;4.80;;
75377;SDS011;63959;51.960;5.886;2023-06-10T07:48:36;8.80;;;4.63;;
75377;SDS011;63959;51.960;5.886;2023-06-10T07:51:05;10.88;;;5.15;;
75377;SDS011;63959;51.960;5.886;2023-06-10T07:53:33;8.75;;;4.85;;
75377;SDS011;63959;51.960;5.886;2023-06-10T07:56:02;9.32;;;4.95;;
75377;SDS011;63959;51.960;5.886;2023-06-10T07:58:31;9.45;;;4.80;;
75377;SDS011;63959;51.960;5.886;2023-06-10T08:01:02;10.07;;;5.00;;
75377;SDS011;63959;51.960;5.886;2023-06-10T08:03:30;9.13;;;4.38;;
75377;SDS011;63959;51.960;5.886;2023-06-10T08:05:59;8.57;;;4.30;;
75377;SDS011;63959;51.960;5.886;2023-06-10T08:08:28;11.82;;;5.32;;
75377;SDS011;63959;51.960;5.886;2023-06-10T08:10:56;8.43;;;3.97;;
75377;SDS011;63959;51.960;5.886;2023-06-10T08:13:25;9.10;;;4.80;;
75377;SDS011;63959;51.960;5.886;2023-06-10T08:15:53;9.75;;;4.65;;
75377;SDS011;63959;51.960;5.886;2023-06-10T08:18:25;11.45;;;5.90;;
75377;SDS011;63959;51.960;5.886;2023-06-10T08:20:53;9.20;;;5.13;;
75377;SDS011;63959;51.960;5.886;2023-06-10T08:23:22;7.90;;;4.30;;
75377;SDS011;63959;51.960;5.886;2023-06-10T08:25:51;7.63;;;4.13;;
75377;SDS011;63959;51.960;5.886;2023-06-10T08:28:19;8.68;;;4.75;;
75377;SDS011;63959;51.960;5.886;2023-06-10T08:30:48;8.27;;;4.13;;
75377;SDS011;63959;51.960;5.886;2023-06-10T08:33:16;8.45;;;4.45;;
75377;SDS011;63959;51.960;5.886;2023-06-10T08:35:48;7.32;;;4.05;;
75377;SDS011;63959;51.960;5.886;2023-06-10T08:38:16;9.02;;;4.82;;
75377;SDS011;63959;51.960;5.886;2023-06-10T08:40:45;8.45;;;4.40;;
75377;SDS011;63959;51.960;5.886;2023-06-10T08:43:16;9.20;;;4.88;;
75377;SDS011;63959;51.960;5.886;2023-06-10T08:45:46;8.73;;;5.07;;
75377;SDS011;63959;51.960;5.886;2023-06-10T08:48:16;7.57;;;4.50;;
75377;SDS011;63959;51.960;5.886;2023-06-10T08:50:48;10.32;;;5.03;;
75377;SDS011;63959;51.960;5.886;2023-06-10T08:53:18;8.63;;;4.10;;
75377;SDS011;63959;51.960;5.886;2023-06-10T08:55:49;11.05;;;4.65;;
75377;SDS011;63959;51.960;5.886;2023-06-10T08:58:19;10.05;;;4.45;;
75377;SDS011;63959;51.960;5.886;2023-06-10T09:00:48;9.90;;;4.47;;
75377;SDS011;63959;51.960;5.886;2023-06-10T09:03:16;8.70;;;4.38;;
75377;SDS011;63959;51.960;5.886;2023-06-10T09:05:49;9.52;;;4.50;;
75377;SDS011;63959;51.960;5.886;2023-06-10T09:08:18;8.23;;;4.70;;
75377;SDS011;63959;51.960;5.886;2023-06-10T09:10:47;8.18;;;4.28;;
75377;SDS011;63959;51.960;5.886;2023-06-10T09:13:16;9.40;;;4.40;;
75377;SDS011;63959;51.960;5.886;2023-06-10T09:15:44;9.63;;;4.95;;
75377;SDS011;63959;51.960;5.886;2023-06-10T09:18:14;7.07;;;4.32;;
75377;SDS011;63959;51.960;5.886;2023-06-10T09:20:43;7.43;;;4.25;;
75377;SDS011;63959;51.960;5.886;2023-06-10T09:23:15;9.07;;;4.53;;
75377;SDS011;63959;51.960;5.886;2023-06-10T09:25:43;8.60;;;4.75;;
75377;SDS011;63959;51.960;5.886;2023-06-10T09:28:13;9.05;;;4.90;;
75377;SDS011;63959;51.960;5.886;2023-06-10T09:30:42;8.05;;;4.00;;
75377;SDS011;63959;51.960;5.886;2023-06-10T09:33:11;9.07;;;4.40;;
75377;SDS011;63959;51.960;5.886;2023-06-10T09:35:45;9.40;;;5.18;;
75377;SDS011;63959;51.960;5.886;2023-06-10T09:38:19;7.13;;;3.90;;
75377;SDS011;63959;51.960;5.886;2023-06-10T09:40:48;8.93;;;4.78;;
75377;SDS011;63959;51.960;5.886;2023-06-10T09:43:17;11.05;;;4.97;;
75377;SDS011;63959;51.960;5.886;2023-06-10T09:45:47;7.50;;;4.32;;
75377;SDS011;63959;51.960;5.886;2023-06-10T09:48:18;7.75;;;3.85;;
75377;SDS011;63959;51.960;5.886;2023-06-10T09:50:48;7.82;;;4.00;;
75377;SDS011;63959;51.960;5.886;2023-06-10T09:53:20;8.50;;;4.25;;
75377;SDS011;63959;51.960;5.886;2023-06-10T09:55:48;7.80;;;4.15;;
75377;SDS011;63959;51.960;5.886;2023-06-10T09:58:21;7.88;;;3.78;;
75377;SDS011;63959;51.960;5.886;2023-06-10T10:01:04;7.70;;;4.13;;
75377;SDS011;63959;51.960;5.886;2023-06-10T10:03:33;7.15;;;4.20;;
75377;SDS011;63959;51.960;5.886;2023-06-10T10:06:01;9.35;;;3.83;;
75377;SDS011;63959;51.960;5.886;2023-06-10T10:08:33;7.53;;;3.75;;
75377;SDS011;63959;51.960;5.886;2023-06-10T10:11:02;6.47;;;3.90;;
75377;SDS011;63959;51.960;5.886;2023-06-10T10:13:31;7.32;;;4.43;;
75377;SDS011;63959;51.960;5.886;2023-06-10T10:16:03;9.35;;;3.78;;
75377;SDS011;63959;51.960;5.886;2023-06-10T10:18:32;8.02;;;4.18;;
75377;SDS011;63959;51.960;5.886;2023-06-10T10:21:04;6.93;;;3.80;;
75377;SDS011;63959;51.960;5.886;2023-06-10T10:23:38;7.85;;;4.03;;
75377;SDS011;63959;51.960;5.886;2023-06-10T10:26:09;7.00;;;4.40;;
75377;SDS011;63959;51.960;5.886;2023-06-10T10:28:43;6.97;;;4.18;;
75377;SDS011;63959;51.960;5.886;2023-06-10T10:31:13;7.43;;;4.20;;
75377;SDS011;63959;51.960;5.886;2023-06-10T10:33:47;6.88;;;4.20;;
75377;SDS011;63959;51.960;5.886;2023-06-10T10:36:17;7.63;;;3.88;;
75377;SDS011;63959;51.960;5.886;2023-06-10T10:38:50;6.78;;;3.67;;
75377;SDS011;63959;51.960;5.886;2023-06-10T10:41:18;7.28;;;3.67;;
75377;SDS011;63959;51.960;5.886;2023-06-10T10:43:48;6.65;;;4.18;;
75377;SDS011;63959;51.960;5.886;2023-06-10T10:46:17;6.70;;;3.90;;
75377;SDS011;63959;51.960;5.886;2023-06-10T10:48:47;5.88;;;3.30;;
75377;SDS011;63959;51.960;5.886;2023-06-10T10:51:20;7.00;;;3.95;;
75377;SDS011;63959;51.960;5.886;2023-06-10T10:56:36;6.55;;;3.55;;
75377;SDS011;63959;51.960;5.886;2023-06-10T10:59:05;6.90;;;3.70;;
75377;SDS011;63959;51.960;5.886;2023-06-10T11:01:43;7.13;;;3.92;;
75377;SDS011;63959;51.960;5.886;2023-06-10T11:04:12;8.60;;;4.13;;
75377;SDS011;63959;51.960;5.886;2023-06-10T11:06:44;6.60;;;3.42;;
75377;SDS011;63959;51.960;5.886;2023-06-10T11:09:26;7.43;;;3.97;;
75377;SDS011;63959;51.960;5.886;2023-06-10T11:11:59;6.35;;;3.63;;
75377;SDS011;63959;51.960;5.886;2023-06-10T11:14:27;8.07;;;4.15;;
75377;SDS011;63959;51.960;5.886;2023-06-10T11:16:57;7.45;;;3.40;;
75377;SDS011;63959;51.960;5.886;2023-06-10T11:19:35;7.78;;;3.88;;
75377;SDS011;63959;51.960;5.886;2023-06-10T11:22:07;8.82;;;3.80;;
75377;SDS011;63959;51.960;5.886;2023-06-10T11:24:36;5.95;;;3.22;;
75377;SDS011;63959;51.960;5.886;2023-06-10T11:27:18;6.30;;;3.05;;
75377;SDS011;63959;51.960;5.886;2023-06-10T11:29:57;6.15;;;3.45;;
75377;SDS011;63959;51.960;5.886;2023-06-10T11:32:29;7.90;;;3.00;;
75377;SDS011;63959;51.960;5.886;2023-06-10T11:34:59;7.95;;;3.67;;
75377;SDS011;63959;51.960;5.886;2023-06-10T11:37:27;6.40;;;3.65;;
75377;SDS011;63959;51.960;5.886;2023-06-10T11:39:56;7.00;;;3.70;;
75377;SDS011;63959;51.960;5.886;2023-06-10T11:42:28;7.28;;;3.70;;
75377;SDS011;63959;51.960;5.886;2023-06-10T11:44:56;5.85;;;3.63;;
75377;SDS011;63959;51.960;5.886;2023-06-10T11:47:28;6.75;;;3.65;;
75377;SDS011;63959;51.960;5.886;2023-06-10T11:49:56;8.40;;;3.67;;
75377;SDS011;63959;51.960;5.886;2023-06-10T11:52:28;7.03;;;4.00;;
75377;SDS011;63959;51.960;5.886;2023-06-10T11:54:57;6.03;;;3.38;;
75377;SDS011;63959;51.960;5.886;2023-06-10T11:57:29;7.07;;;3.55;;
75377;SDS011;63959;51.960;5.886;2023-06-10T12:00:01;7.15;;;3.75;;
75377;SDS011;63959;51.960;5.886;2023-06-10T12:05:11;5.95;;;3.42;;
75377;SDS011;63959;51.960;5.886;2023-06-10T12:07:40;6.70;;;3.80;;
75377;SDS011;63959;51.960;5.886;2023-06-10T12:10:09;8.35;;;4.35;;
75377;SDS011;63959;51.960;5.886;2023-06-10T12:12:40;8.68;;;4.20;;
75377;SDS011;63959;51.960;5.886;2023-06-10T12:15:09;7.03;;;4.00;;
75377;SDS011;63959;51.960;5.886;2023-06-10T12:17:38;6.28;;;3.88;;
75377;SDS011;63959;51.960;5.886;2023-06-10T12:20:08;9.88;;;3.88;;
75377;SDS011;63959;51.960;5.886;2023-06-10T12:22:38;6.38;;;3.40;;
75377;SDS011;63959;51.960;5.886;2023-06-10T12:25:07;8.13;;;4.38;;
75377;SDS011;63959;51.960;5.886;2023-06-10T12:27:37;6.95;;;3.90;;
75377;SDS011;63959;51.960;5.886;2023-06-10T12:30:09;6.28;;;3.83;;
75377;SDS011;63959;51.960;5.886;2023-06-10T12:32:38;7.13;;;3.67;;
75377;SDS011;63959;51.960;5.886;2023-06-10T12:35:20;8.00;;;4.22;;
75377;SDS011;63959;51.960;5.886;2023-06-10T12:37:56;6.50;;;4.05;;
75377;SDS011;63959;51.960;5.886;2023-06-10T12:40:26;6.82;;;4.15;;
75377;SDS011;63959;51.960;5.886;2023-06-10T12:42:57;7.53;;;4.47;;
75377;SDS011;63959;51.960;5.886;2023-06-10T12:45:29;7.60;;;4.25;;
75377;SDS011;63959;51.960;5.886;2023-06-10T12:48:04;6.43;;;4.25;;
75377;SDS011;63959;51.960;5.886;2023-06-10T12:50:37;6.88;;;4.30;;
75377;SDS011;63959;51.960;5.886;2023-06-10T12:53:06;6.50;;;4.32;;
75377;SDS011;63959;51.960;5.886;2023-06-10T12:55:35;6.65;;;4.00;;
75377;SDS011;63959;51.960;5.886;2023-06-10T12:58:04;7.75;;;4.10;;
75377;SDS011;63959;51.960;5.886;2023-06-10T13:00:35;8.48;;;3.90;;
75377;SDS011;63959;51.960;5.886;2023-06-10T13:03:04;7.47;;;3.83;;
75377;SDS011;63959;51.960;5.886;2023-06-10T13:05:34;6.00;;;3.78;;
75377;SDS011;63959;51.960;5.886;2023-06-10T13:08:07;7.55;;;4.28;;
75377;SDS011;63959;51.960;5.886;2023-06-10T13:10:36;7.07;;;4.20;;
75377;SDS011;63959;51.960;5.886;2023-06-10T13:13:05;8.07;;;4.50;;
75377;SDS011;63959;51.960;5.886;2023-06-10T13:15:35;6.95;;;4.20;;
75377;SDS011;63959;51.960;5.886;2023-06-10T13:18:04;6.43;;;4.07;;
75377;SDS011;63959;51.960;5.886;2023-06-10T13:20:33;6.78;;;4.40;;
75377;SDS011;63959;51.960;5.886;2023-06-10T13:23:01;6.72;;;3.90;;
75377;SDS011;63959;51.960;5.886;2023-06-10T13:25:33;9.63;;;5.15;;
75377;SDS011;63959;51.960;5.886;2023-06-10T13:28:01;6.90;;;4.30;;
75377;SDS011;63959;51.960;5.886;2023-06-10T13:30:30;6.97;;;4.55;;
75377;SDS011;63959;51.960;5.886;2023-06-10T13:32:59;6.88;;;4.50;;
75377;SDS011;63959;51.960;5.886;2023-06-10T13:35:27;6.25;;;3.97;;
75377;SDS011;63959;51.960;5.886;2023-06-10T13:37:56;7.88;;;4.03;;
75377;SDS011;63959;51.960;5.886;2023-06-10T13:40:25;7.75;;;4.57;;
75377;SDS011;63959;51.960;5.886;2023-06-10T13:42:56;6.63;;;4.60;;
75377;SDS011;63959;51.960;5.886;2023-06-10T13:45:25;6.82;;;4.13;;
75377;SDS011;63959;51.960;5.886;2023-06-10T13:47:54;7.30;;;4.22;;
75377;SDS011;63959;51.960;5.886;2023-06-10T13:50:22;8.85;;;5.15;;
75377;SDS011;63959;51.960;5.886;2023-06-10T13:52:51;8.40;;;4.40;;
75377;SDS011;63959;51.960;5.886;2023-06-10T13:55:20;6.93;;;4.45;;
75377;SDS011;63959;51.960;5.886;2023-06-10T13:57:50;7.60;;;4.78;;
75377;SDS011;63959;51.960;5.886;2023-06-10T14:00:21;7.40;;;4.78;;
75377;SDS011;63959;51.960;5.886;2023-06-10T14:02:50;7.88;;;4.30;;
75377;SDS011;63959;51.960;5.886;2023-06-10T14:05:19;8.80;;;5.20;;
75377;SDS011;63959;51.960;5.886;2023-06-10T14:07:48;6.68;;;4.10;;
75377;SDS011;63959;51.960;5.886;2023-06-10T14:10:16;6.90;;;4.18;;
75377;SDS011;63959;51.960;5.886;2023-06-10T14:12:45;6.93;;;4.75;;
75377;SDS011;63959;51.960;5.886;2023-06-10T14:15:14;7.85;;;4.90;;
75377;SDS011;63959;51.960;5.886;2023-06-10T14:17:46;5.28;;;3.78;;
75377;SDS011;63959;51.960;5.886;2023-06-10T14:20:14;6.03;;;3.95;;
75377;SDS011;63959;51.960;5.886;2023-06-10T14:22:43;7.53;;;4.05;;
75377;SDS011;63959;51.960;5.886;2023-06-10T14:25:11;8.35;;;4.07;;
75377;SDS011;63959;51.960;5.886;2023-06-10T14:27:40;7.82;;;4.50;;
75377;SDS011;63959;51.960;5.886;2023-06-10T14:30:09;7.50;;;4.47;;
75377;SDS011;63959;51.960;5.886;2023-06-10T14:32:38;6.10;;;4.00;;
75377;SDS011;63959;51.960;5.886;2023-06-10T14:35:09;9.32;;;4.40;;
75377;SDS011;63959;51.960;5.886;2023-06-10T14:37:38;8.48;;;4.43;;
75377;SDS011;63959;51.960;5.886;2023-06-10T14:40:07;8.00;;;5.07;;
75377;SDS011;63959;51.960;5.886;2023-06-10T14:42:36;8.20;;;4.93;;
75377;SDS011;63959;51.960;5.886;2023-06-10T14:45:05;7.55;;;4.78;;
75377;SDS011;63959;51.960;5.886;2023-06-10T14:47:34;8.38;;;4.50;;
75377;SDS011;63959;51.960;5.886;2023-06-10T14:50:02;7.30;;;4.40;;
75377;SDS011;63959;51.960;5.886;2023-06-10T14:52:34;6.72;;;4.13;;
75377;SDS011;63959;51.960;5.886;2023-06-10T14:55:03;6.72;;;4.85;;
75377;SDS011;63959;51.960;5.886;2023-06-10T14:57:31;6.75;;;3.72;;
75377;SDS011;63959;51.960;5.886;2023-06-10T15:00:00;10.48;;;4.85;;
75377;SDS011;63959;51.960;5.886;2023-06-10T15:02:29;9.25;;;4.75;;
75377;SDS011;63959;51.960;5.886;2023-06-10T15:04:57;8.55;;;4.93;;
75377;SDS011;63959;51.960;5.886;2023-06-10T15:07:26;7.88;;;4.70;;